87FD weather

Palm Beach Gardens Medical Center Heliport
Palm Beach Gardens, Florida, United States

Public forecast

Using degrees Fahrenheit for public forecast. Weather courtesy of forecast.io.

METAR (pilot weather report)

Closest report is Palm Beach International Airport, 8.8 nm (16.3 km) S. Retrieved 2019/06/17 19:53 UTC (24 minutes ago):

KPBI 171953Z 17006KT 10SM -RA SCT040 SCT070 BKN080 26/23 A3007 RMK AO2 TSE35 SLP180 CB DSNT ALQDS P0003 T02560233

TAF (pilot weather forecast)

Closest forecast is Palm Beach International Airport, 8.8 nm (16.3 km) S. Retrieved 2019/06/17 18:31 UTC (2 hours ago):

TAF KPBI 171727Z 1718/1818 13011KT P6SM SHRA VCTS BKN030CB FM180000 15006KT P6SM VCSH SCT025 BKN070 FM181500 20012KT P6SM VCTS SCT030CB BKN060